sensor_id;sensor_type;location;lat;lon;timestamp;noise_LAeq;noise_LA_min;noise_LA_max;noise_LA01;noise_LA95
37161;Laerm;67371;52.624;13.544;2023-03-01T00:00:34;55.34;35.23;75.88;;
37161;Laerm;67371;52.624;13.544;2023-03-01T00:02:59;58.21;33.57;76.80;;
37161;Laerm;67371;52.624;13.544;2023-03-01T00:05:24;38.83;32.85;49.53;;
37161;Laerm;67371;52.624;13.544;2023-03-01T00:07:52;38.81;32.07;48.29;;
37161;Laerm;67371;52.624;13.544;2023-03-01T00:10:17;54.79;34.11;74.72;;
37161;Laerm;67371;52.624;13.544;2023-03-01T00:12:42;54.00;34.92;72.66;;
37161;Laerm;67371;52.624;13.544;2023-03-01T00:15:08;54.77;36.13;72.13;;
37161;Laerm;67371;52.624;13.544;2023-03-01T00:17:33;41.44;33.52;49.64;;
37161;Laerm;67371;52.624;13.544;2023-03-01T00:19:58;42.21;34.60;48.83;;
37161;Laerm;67371;52.624;13.544;2023-03-01T00:22:23;44.16;34.06;53.43;;
37161;Laerm;67371;52.624;13.544;2023-03-01T00:24:48;53.64;30.73;72.42;;
37161;Laerm;67371;52.624;13.544;2023-03-01T00:27:14;61.78;32.89;79.73;;
37161;Laerm;67371;52.624;13.544;2023-03-01T00:29:39;58.12;36.01;75.69;;
37161;Laerm;67371;52.624;13.544;2023-03-01T00:32:04;60.99;37.29;77.46;;
37161;Laerm;67371;52.624;13.544;2023-03-01T00:34:29;42.39;35.65;49.84;;
37161;Laerm;67371;52.624;13.544;2023-03-01T00:36:55;40.40;35.47;47.48;;
37161;Laerm;67371;52.624;13.544;2023-03-01T00:39:20;42.75;36.85;49.29;;
37161;Laerm;67371;52.624;13.544;2023-03-01T00:41:45;60.59;36.40;77.66;;
37161;Laerm;67371;52.624;13.544;2023-03-01T00:44:11;38.60;33.92;46.33;;
37161;Laerm;67371;52.624;13.544;2023-03-01T00:46:36;39.31;33.97;46.84;;
37161;Laerm;67371;52.624;13.544;2023-03-01T00:49:01;38.45;32.52;45.10;;
37161;Laerm;67371;52.624;13.544;2023-03-01T00:51:27;57.28;33.99;73.50;;
37161;Laerm;67371;52.624;13.544;2023-03-01T00:53:53;55.19;35.74;74.63;;
37161;Laerm;67371;52.624;13.544;2023-03-01T00:56:19;39.23;32.68;50.50;;
37161;Laerm;67371;52.624;13.544;2023-03-01T00:58:44;36.25;31.47;43.42;;
37161;Laerm;67371;52.624;13.544;2023-03-01T01:01:11;58.99;33.60;76.67;;
37161;Laerm;67371;52.624;13.544;2023-03-01T01:03:42;35.57;31.35;40.80;;
37161;Laerm;67371;52.624;13.544;2023-03-01T01:06:45;57.53;31.43;74.85;;
37161;Laerm;67371;52.624;13.544;2023-03-01T01:09:03;36.72;31.25;45.00;;
37161;Laerm;67371;52.624;13.544;2023-03-01T01:11:29;54.38;31.18;75.04;;
37161;Laerm;67371;52.624;13.544;2023-03-01T01:13:55;54.08;30.41;72.28;;
37161;Laerm;67371;52.624;13.544;2023-03-01T01:16:22;52.41;33.35;68.99;;
37161;Laerm;67371;52.624;13.544;2023-03-01T01:18:47;44.62;32.41;53.72;;
37161;Laerm;67371;52.624;13.544;2023-03-01T01:21:14;52.94;32.97;70.20;;
37161;Laerm;67371;52.624;13.544;2023-03-01T01:23:39;61.08;34.38;78.77;;
37161;Laerm;67371;52.624;13.544;2023-03-01T01:26:09;60.98;33.81;78.09;;
37161;Laerm;67371;52.624;13.544;2023-03-01T01:28:35;37.01;32.90;45.63;;
37161;Laerm;67371;52.624;13.544;2023-03-01T01:31:00;55.38;33.02;73.33;;
37161;Laerm;67371;52.624;13.544;2023-03-01T01:33:26;59.16;35.32;76.38;;
37161;Laerm;67371;52.624;13.544;2023-03-01T01:35:51;60.64;35.15;76.70;;
37161;Laerm;67371;52.624;13.544;2023-03-01T01:38:17;41.44;33.21;49.80;;
37161;Laerm;67371;52.624;13.544;2023-03-01T01:40:43;37.90;30.72;49.53;;
37161;Laerm;67371;52.624;13.544;2023-03-01T01:43:13;52.80;31.19;73.34;;
37161;Laerm;67371;52.624;13.544;2023-03-01T01:45:41;55.62;33.87;72.58;;
37161;Laerm;67371;52.624;13.544;2023-03-01T01:48:09;41.67;35.82;49.63;;
37161;Laerm;67371;52.624;13.544;2023-03-01T01:50:35;39.51;32.14;50.70;;
37161;Laerm;67371;52.624;13.544;2023-03-01T01:53:14;36.72;31.13;47.82;;
37161;Laerm;67371;52.624;13.544;2023-03-01T01:55:43;58.68;33.31;78.76;;
37161;Laerm;67371;52.624;13.544;2023-03-01T01:58:11;38.90;34.44;47.07;;
37161;Laerm;67371;52.624;13.544;2023-03-01T02:00:37;58.69;32.67;78.00;;
37161;Laerm;67371;52.624;13.544;2023-03-01T02:03:05;60.07;34.96;76.33;;
37161;Laerm;67371;52.624;13.544;2023-03-01T02:05:47;36.89;32.20;43.38;;
37161;Laerm;67371;52.624;13.544;2023-03-01T02:08:15;39.85;33.66;47.40;;
37161;Laerm;67371;52.624;13.544;2023-03-01T02:10:42;55.16;34.14;72.79;;
37161;Laerm;67371;52.624;13.544;2023-03-01T02:13:07;56.74;34.70;70.26;;
37161;Laerm;67371;52.624;13.544;2023-03-01T02:15:33;60.56;35.69;74.57;;
37161;Laerm;67371;52.624;13.544;2023-03-01T02:17:58;38.75;32.20;47.32;;
37161;Laerm;67371;52.624;13.544;2023-03-01T02:22:58;61.26;34.44;76.13;;
37161;Laerm;67371;52.624;13.544;2023-03-01T02:28:02;52.07;33.14;68.14;;
37161;Laerm;67371;52.624;13.544;2023-03-01T02:30:30;59.05;38.17;73.32;;
37161;Laerm;67371;52.624;13.544;2023-03-01T02:32:56;57.34;37.74;71.51;;
37161;Laerm;67371;52.624;13.544;2023-03-01T02:35:29;59.20;38.14;72.85;;
37161;Laerm;67371;52.624;13.544;2023-03-01T02:37:55;57.40;37.77;71.88;;
37161;Laerm;67371;52.624;13.544;2023-03-01T02:40:21;56.10;35.79;73.53;;
37161;Laerm;67371;52.624;13.544;2023-03-01T02:42:49;60.30;36.23;79.24;;
37161;Laerm;67371;52.624;13.544;2023-03-01T02:45:16;40.67;34.20;48.21;;
37161;Laerm;67371;52.624;13.544;2023-03-01T02:47:41;59.55;37.06;75.52;;
37161;Laerm;67371;52.624;13.544;2023-03-01T02:50:22;54.59;37.37;71.86;;
37161;Laerm;67371;52.624;13.544;2023-03-01T02:55:21;57.28;36.75;74.18;;
37161;Laerm;67371;52.624;13.544;2023-03-01T02:57:46;59.38;38.31;77.67;;
37161;Laerm;67371;52.624;13.544;2023-03-01T03:00:17;59.84;39.32;74.95;;
37161;Laerm;67371;52.624;13.544;2023-03-01T03:02:47;59.62;36.13;73.03;;
37161;Laerm;67371;52.624;13.544;2023-03-01T03:05:17;61.49;39.88;75.96;;
37161;Laerm;67371;52.624;13.544;2023-03-01T03:07:43;43.41;38.79;50.97;;
37161;Laerm;67371;52.624;13.544;2023-03-01T03:10:13;60.69;37.32;74.32;;
37161;Laerm;67371;52.624;13.544;2023-03-01T03:12:39;56.69;36.11;77.31;;
37161;Laerm;67371;52.624;13.544;2023-03-01T03:15:05;61.93;40.29;79.41;;
37161;Laerm;67371;52.624;13.544;2023-03-01T03:17:34;60.42;41.42;75.25;;
37161;Laerm;67371;52.624;13.544;2023-03-01T03:19:59;62.21;43.37;75.06;;
37161;Laerm;67371;52.624;13.544;2023-03-01T03:22:24;59.08;41.70;76.23;;
37161;Laerm;67371;52.624;13.544;2023-03-01T03:24:50;58.58;41.11;74.30;;
37161;Laerm;67371;52.624;13.544;2023-03-01T03:27:15;60.02;41.12;73.05;;
37161;Laerm;67371;52.624;13.544;2023-03-01T03:29:40;58.14;41.55;72.71;;
37161;Laerm;67371;52.624;13.544;2023-03-01T03:32:05;66.23;46.20;78.36;;
37161;Laerm;67371;52.624;13.544;2023-03-01T03:34:30;64.34;42.86;74.61;;
37161;Laerm;67371;52.624;13.544;2023-03-01T03:36:56;61.55;41.96;77.02;;
37161;Laerm;67371;52.624;13.544;2023-03-01T03:39:24;64.48;42.27;80.23;;
37161;Laerm;67371;52.624;13.544;2023-03-01T03:41:49;62.06;45.69;76.62;;
37161;Laerm;67371;52.624;13.544;2023-03-01T03:44:15;66.52;47.30;79.03;;
37161;Laerm;67371;52.624;13.544;2023-03-01T03:46:40;64.48;45.02;78.29;;
37161;Laerm;67371;52.624;13.544;2023-03-01T03:49:05;62.40;42.95;75.15;;
37161;Laerm;67371;52.624;13.544;2023-03-01T03:51:30;61.77;42.43;74.90;;
37161;Laerm;67371;52.624;13.544;2023-03-01T03:53:55;64.50;42.99;77.07;;
37161;Laerm;67371;52.624;13.544;2023-03-01T03:56:21;62.44;41.68;73.90;;
37161;Laerm;67371;52.624;13.544;2023-03-01T03:58:51;66.26;42.38;79.09;;
37161;Laerm;67371;52.624;13.544;2023-03-01T04:01:16;62.08;42.80;78.27;;
37161;Laerm;67371;52.624;13.544;2023-03-01T04:03:41;61.86;42.40;76.00;;
37161;Laerm;67371;52.624;13.544;2023-03-01T04:06:11;64.17;42.57;76.24;;
37161;Laerm;67371;52.624;13.544;2023-03-01T04:08:36;65.96;43.81;76.88;;
37161;Laerm;67371;52.624;13.544;2023-03-01T04:11:03;66.73;44.92;79.31;;
37161;Laerm;67371;52.624;13.544;2023-03-01T04:13:48;66.64;46.07;76.98;;
37161;Laerm;67371;52.624;13.544;2023-03-01T04:16:14;67.43;48.58;78.35;;
37161;Laerm;67371;52.624;13.544;2023-03-01T04:18:39;67.92;48.18;76.35;;
37161;Laerm;67371;52.624;13.544;2023-03-01T04:21:04;67.67;47.69;76.84;;
37161;Laerm;67371;52.624;13.544;2023-03-01T04:23:30;66.17;45.68;75.55;;
37161;Laerm;67371;52.624;13.544;2023-03-01T04:25:56;67.54;44.52;80.03;;
37161;Laerm;67371;52.624;13.544;2023-03-01T04:30:50;67.34;46.95;76.63;;
37161;Laerm;67371;52.624;13.544;2023-03-01T04:33:16;65.67;46.75;77.62;;
37161;Laerm;67371;52.624;13.544;2023-03-01T04:35:41;66.62;47.30;80.26;;
37161;Laerm;67371;52.624;13.544;2023-03-01T04:38:06;67.70;49.02;77.19;;
37161;Laerm;67371;52.624;13.544;2023-03-01T04:40:32;66.27;48.99;76.44;;
37161;Laerm;67371;52.624;13.544;2023-03-01T04:42:57;66.45;49.21;76.42;;
37161;Laerm;67371;52.624;13.544;2023-03-01T04:45:22;66.25;47.05;75.63;;
37161;Laerm;67371;52.624;13.544;2023-03-01T04:47:48;68.40;50.17;78.83;;
37161;Laerm;67371;52.624;13.544;2023-03-01T04:50:14;67.07;47.46;77.75;;
37161;Laerm;67371;52.624;13.544;2023-03-01T04:52:40;66.11;47.77;76.67;;
37161;Laerm;67371;52.624;13.544;2023-03-01T04:55:06;67.92;49.63;76.47;;
37161;Laerm;67371;52.624;13.544;2023-03-01T04:57:32;68.12;49.71;75.52;;
37161;Laerm;67371;52.624;13.544;2023-03-01T04:59:57;67.03;48.25;76.72;;
37161;Laerm;67371;52.624;13.544;2023-03-01T05:02:22;68.68;50.20;76.44;;
37161;Laerm;67371;52.624;13.544;2023-03-01T05:04:48;67.23;50.15;76.42;;
37161;Laerm;67371;52.624;13.544;2023-03-01T05:07:13;67.79;49.12;78.49;;
37161;Laerm;67371;52.624;13.544;2023-03-01T05:09:47;70.40;48.72;79.00;;
37161;Laerm;67371;52.624;13.544;2023-03-01T05:12:13;69.95;49.31;81.38;;
37161;Laerm;67371;52.624;13.544;2023-03-01T05:14:38;67.41;50.31;78.70;;
37161;Laerm;67371;52.624;13.544;2023-03-01T05:17:04;69.11;50.85;77.90;;
37161;Laerm;67371;52.624;13.544;2023-03-01T05:19:29;69.31;50.51;77.26;;
37161;Laerm;67371;52.624;13.544;2023-03-01T05:21:56;69.45;50.85;80.33;;
37161;Laerm;67371;52.624;13.544;2023-03-01T05:24:29;68.69;49.29;79.36;;
37161;Laerm;67371;52.624;13.544;2023-03-01T05:26:54;69.40;50.20;77.71;;
37161;Laerm;67371;52.624;13.544;2023-03-01T05:29:20;68.25;50.45;78.33;;
37161;Laerm;67371;52.624;13.544;2023-03-01T05:31:50;71.26;50.90;82.30;;
37161;Laerm;67371;52.624;13.544;2023-03-01T05:34:15;68.74;52.97;77.38;;
37161;Laerm;67371;52.624;13.544;2023-03-01T05:36:41;68.04;51.01;77.05;;
37161;Laerm;67371;52.624;13.544;2023-03-01T05:39:06;70.29;49.75;80.50;;
37161;Laerm;67371;52.624;13.544;2023-03-01T05:41:31;69.59;51.31;86.22;;
37161;Laerm;67371;52.624;13.544;2023-03-01T05:43:56;71.24;53.57;78.60;;
37161;Laerm;67371;52.624;13.544;2023-03-01T05:46:21;67.30;50.24;77.93;;
37161;Laerm;67371;52.624;13.544;2023-03-01T05:48:49;70.80;50.50;84.95;;
37161;Laerm;67371;52.624;13.544;2023-03-01T05:51:14;68.29;49.61;76.56;;
37161;Laerm;67371;52.624;13.544;2023-03-01T05:53:39;69.70;49.00;76.72;;
37161;Laerm;67371;52.624;13.544;2023-03-01T05:56:05;69.02;49.87;77.64;;
37161;Laerm;67371;52.624;13.544;2023-03-01T05:58:31;67.88;50.68;79.39;;
37161;Laerm;67371;52.624;13.544;2023-03-01T06:00:56;69.49;52.32;78.73;;
37161;Laerm;67371;52.624;13.544;2023-03-01T06:03:21;69.90;50.77;77.66;;
37161;Laerm;67371;52.624;13.544;2023-03-01T06:05:47;70.57;53.70;77.97;;
37161;Laerm;67371;52.624;13.544;2023-03-01T06:08:12;70.29;53.80;78.34;;
37161;Laerm;67371;52.624;13.544;2023-03-01T06:10:37;67.46;50.17;76.77;;
37161;Laerm;67371;52.624;13.544;2023-03-01T06:13:03;70.76;53.76;78.33;;
37161;Laerm;67371;52.624;13.544;2023-03-01T06:15:28;70.71;54.44;82.05;;
37161;Laerm;67371;52.624;13.544;2023-03-01T06:17:54;69.57;51.28;78.59;;
37161;Laerm;67371;52.624;13.544;2023-03-01T06:20:23;69.22;52.81;77.98;;
37161;Laerm;67371;52.624;13.544;2023-03-01T06:22:49;70.64;53.86;79.87;;
37161;Laerm;67371;52.624;13.544;2023-03-01T06:25:15;69.62;51.44;80.00;;
37161;Laerm;67371;52.624;13.544;2023-03-01T06:27:41;70.39;52.34;79.04;;
37161;Laerm;67371;52.624;13.544;2023-03-01T06:30:08;70.96;52.70;77.91;;
37161;Laerm;67371;52.624;13.544;2023-03-01T06:32:34;66.86;50.91;75.76;;
37161;Laerm;67371;52.624;13.544;2023-03-01T06:35:00;69.41;52.65;77.76;;
37161;Laerm;67371;52.624;13.544;2023-03-01T06:37:25;69.76;52.50;81.78;;
37161;Laerm;67371;52.624;13.544;2023-03-01T06:39:51;70.31;51.85;77.58;;
37161;Laerm;67371;52.624;13.544;2023-03-01T06:42:16;68.62;51.21;77.81;;
37161;Laerm;67371;52.624;13.544;2023-03-01T06:44:41;69.61;50.29;78.43;;
37161;Laerm;67371;52.624;13.544;2023-03-01T06:47:06;69.75;51.34;78.68;;
37161;Laerm;67371;52.624;13.544;2023-03-01T06:49:32;70.83;51.15;80.66;;
37161;Laerm;67371;52.624;13.544;2023-03-01T06:51:57;68.33;49.40;89.05;;
37161;Laerm;67371;52.624;13.544;2023-03-01T06:54:22;68.77;48.75;77.58;;
37161;Laerm;67371;52.624;13.544;2023-03-01T06:56:48;70.15;50.91;80.30;;
37161;Laerm;67371;52.624;13.544;2023-03-01T06:59:14;70.85;53.53;83.45;;
37161;Laerm;67371;52.624;13.544;2023-03-01T07:01:39;70.58;51.99;85.53;;
37161;Laerm;67371;52.624;13.544;2023-03-01T07:04:05;69.90;50.09;79.43;;
37161;Laerm;67371;52.624;13.544;2023-03-01T07:06:30;68.65;52.17;77.36;;
37161;Laerm;67371;52.624;13.544;2023-03-01T07:08:55;69.22;50.99;77.69;;
37161;Laerm;67371;52.624;13.544;2023-03-01T07:11:20;69.06;50.92;86.95;;
37161;Laerm;67371;52.624;13.544;2023-03-01T07:13:45;69.57;50.92;77.45;;
37161;Laerm;67371;52.624;13.544;2023-03-01T07:16:11;68.59;50.91;80.43;;
37161;Laerm;67371;52.624;13.544;2023-03-01T07:18:36;68.02;48.82;75.40;;
37161;Laerm;67371;52.624;13.544;2023-03-01T07:21:05;68.68;49.80;78.71;;
37161;Laerm;67371;52.624;13.544;2023-03-01T07:23:31;67.48;48.62;78.15;;
37161;Laerm;67371;52.624;13.544;2023-03-01T07:25:56;70.93;50.58;80.94;;
37161;Laerm;67371;52.624;13.544;2023-03-01T07:28:24;69.20;46.51;77.86;;
37161;Laerm;67371;52.624;13.544;2023-03-01T07:30:49;69.09;47.64;77.55;;
37161;Laerm;67371;52.624;13.544;2023-03-01T07:33:15;68.18;47.14;79.57;;
37161;Laerm;67371;52.624;13.544;2023-03-01T07:35:40;68.68;47.61;79.72;;
37161;Laerm;67371;52.624;13.544;2023-03-01T07:38:05;68.93;47.98;79.93;;
37161;Laerm;67371;52.624;13.544;2023-03-01T07:40:31;66.82;44.27;77.45;;
37161;Laerm;67371;52.624;13.544;2023-03-01T07:42:56;68.85;47.21;85.98;;
37161;Laerm;67371;52.624;13.544;2023-03-01T07:45:22;68.61;45.77;78.72;;
37161;Laerm;67371;52.624;13.544;2023-03-01T07:47:48;67.61;46.35;77.54;;
37161;Laerm;67371;52.624;13.544;2023-03-01T07:50:14;68.19;45.05;78.51;;
37161;Laerm;67371;52.624;13.544;2023-03-01T07:52:40;68.49;49.25;79.35;;
37161;Laerm;67371;52.624;13.544;2023-03-01T07:55:05;68.58;41.86;79.99;;
37161;Laerm;67371;52.624;13.544;2023-03-01T07:57:31;69.67;41.75;78.36;;
37161;Laerm;67371;52.624;13.544;2023-03-01T07:59:56;69.67;52.76;80.04;;
37161;Laerm;67371;52.624;13.544;2023-03-01T08:02:21;66.65;42.05;75.38;;
37161;Laerm;67371;52.624;13.544;2023-03-01T08:04:47;68.15;45.63;78.37;;
37161;Laerm;67371;52.624;13.544;2023-03-01T08:07:12;68.59;44.91;77.81;;
37161;Laerm;67371;52.624;13.544;2023-03-01T08:09:37;68.17;45.16;78.10;;
37161;Laerm;67371;52.624;13.544;2023-03-01T08:12:03;67.49;44.08;77.01;;
37161;Laerm;67371;52.624;13.544;2023-03-01T08:14:29;68.32;40.85;78.02;;
37161;Laerm;67371;52.624;13.544;2023-03-01T08:16:54;68.57;46.58;79.81;;
37161;Laerm;67371;52.624;13.544;2023-03-01T08:19:20;67.39;44.90;78.76;;
37161;Laerm;67371;52.624;13.544;2023-03-01T08:21:45;69.27;41.44;76.38;;
37161;Laerm;67371;52.624;13.544;2023-03-01T08:24:10;67.95;41.00;79.77;;
37161;Laerm;67371;52.624;13.544;2023-03-01T08:26:36;67.66;37.94;77.79;;
37161;Laerm;67371;52.624;13.544;2023-03-01T08:29:02;68.33;42.92;78.76;;
37161;Laerm;67371;52.624;13.544;2023-03-01T08:31:35;67.02;42.14;77.93;;
37161;Laerm;67371;52.624;13.544;2023-03-01T08:34:01;66.91;37.00;76.78;;
37161;Laerm;67371;52.624;13.544;2023-03-01T08:36:27;67.26;37.60;77.84;;
37161;Laerm;67371;52.624;13.544;2023-03-01T08:38:53;67.86;42.08;76.21;;
37161;Laerm;67371;52.624;13.544;2023-03-01T08:41:18;67.41;39.22;77.48;;
37161;Laerm;67371;52.624;13.544;2023-03-01T08:43:44;69.03;46.59;77.49;;
37161;Laerm;67371;52.624;13.544;2023-03-01T08:46:09;69.18;48.94;78.93;;
37161;Laerm;67371;52.624;13.544;2023-03-01T08:48:35;66.34;40.00;75.11;;
37161;Laerm;67371;52.624;13.544;2023-03-01T08:51:10;67.85;46.02;77.52;;
37161;Laerm;67371;52.624;13.544;2023-03-01T08:53:36;70.08;41.68;80.83;;
37161;Laerm;67371;52.624;13.544;2023-03-01T08:56:02;68.50;48.03;80.21;;
37161;Laerm;67371;52.624;13.544;2023-03-01T08:58:27;68.23;42.00;78.02;;
37161;Laerm;67371;52.624;13.544;2023-03-01T09:00:53;68.99;47.04;78.17;;
37161;Laerm;67371;52.624;13.544;2023-03-01T09:03:18;67.46;42.31;75.99;;
37161;Laerm;67371;52.624;13.544;2023-03-01T09:05:43;68.03;40.83;78.65;;
37161;Laerm;67371;52.624;13.544;2023-03-01T09:08:10;67.39;36.90;78.62;;
37161;Laerm;67371;52.624;13.544;2023-03-01T09:10:37;67.44;44.36;74.49;;
37161;Laerm;67371;52.624;13.544;2023-03-01T09:13:02;67.90;38.96;76.50;;
37161;Laerm;67371;52.624;13.544;2023-03-01T09:15:27;69.61;42.30;80.12;;
37161;Laerm;67371;52.624;13.544;2023-03-01T09:17:52;68.51;37.19;82.24;;
37161;Laerm;67371;52.624;13.544;2023-03-01T09:20:18;67.80;38.77;77.76;;
37161;Laerm;67371;52.624;13.544;2023-03-01T09:22:43;68.68;39.41;78.66;;
37161;Laerm;67371;52.624;13.544;2023-03-01T09:25:08;69.28;42.68;79.31;;
37161;Laerm;67371;52.624;13.544;2023-03-01T09:27:34;68.18;37.82;78.12;;
37161;Laerm;67371;52.624;13.544;2023-03-01T09:30:00;67.47;43.70;76.94;;
37161;Laerm;67371;52.624;13.544;2023-03-01T09:32:25;68.10;39.02;78.60;;
37161;Laerm;67371;52.624;13.544;2023-03-01T09:34:50;67.36;37.70;78.94;;
37161;Laerm;67371;52.624;13.544;2023-03-01T09:37:34;67.78;42.60;78.95;;
37161;Laerm;67371;52.624;13.544;2023-03-01T09:39:59;67.50;42.28;75.81;;
37161;Laerm;67371;52.624;13.544;2023-03-01T09:42:25;68.41;43.01;80.68;;
37161;Laerm;67371;52.624;13.544;2023-03-01T09:44:57;68.11;42.27;77.62;;
37161;Laerm;67371;52.624;13.544;2023-03-01T09:47:30;67.37;48.04;76.73;;
37161;Laerm;67371;52.624;13.544;2023-03-01T09:50:01;66.44;44.22;74.53;;
37161;Laerm;67371;52.624;13.544;2023-03-01T09:52:36;68.19;42.18;76.10;;
37161;Laerm;67371;52.624;13.544;2023-03-01T09:55:08;67.27;48.82;77.13;;
37161;Laerm;67371;52.624;13.544;2023-03-01T09:57:38;68.67;44.00;77.84;;
37161;Laerm;67371;52.624;13.544;2023-03-01T10:05:41;67.54;44.98;78.19;;
37161;Laerm;67371;52.624;13.544;2023-03-01T10:10:50;68.25;44.72;80.10;;
37161;Laerm;67371;52.624;13.544;2023-03-01T10:13:18;67.33;46.06;80.39;;
37161;Laerm;67371;52.624;13.544;2023-03-01T10:15:49;66.63;37.23;76.00;;
37161;Laerm;67371;52.624;13.544;2023-03-01T10:18:21;67.74;48.71;78.76;;
37161;Laerm;67371;52.624;13.544;2023-03-01T10:21:00;68.15;43.47;76.18;;
37161;Laerm;67371;52.624;13.544;2023-03-01T10:23:27;67.22;39.04;78.69;;
37161;Laerm;67371;52.624;13.544;2023-03-01T10:31:04;67.48;38.60;77.55;;
37161;Laerm;67371;52.624;13.544;2023-03-01T10:33:35;67.87;40.67;77.55;;
37161;Laerm;67371;52.624;13.544;2023-03-01T10:36:02;65.73;36.68;75.83;;
37161;Laerm;67371;52.624;13.544;2023-03-01T10:38:27;67.35;36.65;78.24;;
37161;Laerm;67371;52.624;13.544;2023-03-01T10:40:56;66.93;39.73;74.84;;
37161;Laerm;67371;52.624;13.544;2023-03-01T10:43:23;67.77;40.88;78.91;;
37161;Laerm;67371;52.624;13.544;2023-03-01T10:45:49;68.78;48.24;90.00;;
37161;Laerm;67371;52.624;13.544;2023-03-01T10:48:25;69.75;45.69;81.68;;
37161;Laerm;67371;52.624;13.544;2023-03-01T10:53:27;67.57;39.30;76.32;;
37161;Laerm;67371;52.624;13.544;2023-03-01T10:58:25;67.06;36.16;77.88;;
37161;Laerm;67371;52.624;13.544;2023-03-01T11:01:00;65.42;41.14;75.73;;
37161;Laerm;67371;52.624;13.544;2023-03-01T11:08:26;66.29;38.91;75.57;;
37161;Laerm;67371;52.624;13.544;2023-03-01T11:11:00;68.15;38.64;78.87;;
37161;Laerm;67371;52.624;13.544;2023-03-01T11:13:28;68.48;41.01;81.18;;
37161;Laerm;67371;52.624;13.544;2023-03-01T11:16:04;68.08;43.27;77.16;;
37161;Laerm;67371;52.624;13.544;2023-03-01T11:18:30;67.78;49.20;76.83;;
37161;Laerm;67371;52.624;13.544;2023-03-01T11:20:56;67.24;45.10;74.93;;
37161;Laerm;67371;52.624;13.544;2023-03-01T11:23:23;66.47;39.59;76.18;;
37161;Laerm;67371;52.624;13.544;2023-03-01T11:25:51;68.17;44.74;77.13;;
37161;Laerm;67371;52.624;13.544;2023-03-01T11:28:19;66.95;40.23;77.26;;
37161;Laerm;67371;52.624;13.544;2023-03-01T11:30:48;68.47;44.17;78.60;;
37161;Laerm;67371;52.624;13.544;2023-03-01T11:35:53;69.59;47.49;82.17;;
37161;Laerm;67371;52.624;13.544;2023-03-01T11:38:25;68.79;43.74;76.71;;
37161;Laerm;67371;52.624;13.544;2023-03-01T11:51:25;67.60;39.90;79.91;;
37161;Laerm;67371;52.624;13.544;2023-03-01T11:54:06;68.32;43.67;76.80;;
37161;Laerm;67371;52.624;13.544;2023-03-01T11:59:07;68.28;35.55;78.38;;
37161;Laerm;67371;52.624;13.544;2023-03-01T12:01:42;69.50;40.50;80.37;;
37161;Laerm;67371;52.624;13.544;2023-03-01T12:06:57;69.51;44.51;86.90;;
37161;Laerm;67371;52.624;13.544;2023-03-01T12:22:39;67.05;38.41;74.60;;
37161;Laerm;67371;52.624;13.544;2023-03-01T12:30:31;67.46;39.61;82.92;;
37161;Laerm;67371;52.624;13.544;2023-03-01T12:33:13;66.31;34.84;76.42;;
37161;Laerm;67371;52.624;13.544;2023-03-01T12:35:51;66.31;36.08;76.34;;
37161;Laerm;67371;52.624;13.544;2023-03-01T12:48:13;67.52;47.88;79.47;;
37161;Laerm;67371;52.624;13.544;2023-03-01T12:50:44;66.91;45.06;76.29;;
37161;Laerm;67371;52.624;13.544;2023-03-01T12:53:32;68.76;48.29;80.26;;
37161;Laerm;67371;52.624;13.544;2023-03-01T12:56:06;67.39;48.73;75.45;;
37161;Laerm;67371;52.624;13.544;2023-03-01T12:58:33;68.87;44.02;80.44;;
37161;Laerm;67371;52.624;13.544;2023-03-01T13:03:26;68.33;40.94;81.11;;
37161;Laerm;67371;52.624;13.544;2023-03-01T13:08:47;67.36;36.02;75.55;;
37161;Laerm;67371;52.624;13.544;2023-03-01T13:11:18;67.35;43.81;77.61;;
37161;Laerm;67371;52.624;13.544;2023-03-01T13:13:44;65.84;38.75;75.77;;
37161;Laerm;67371;52.624;13.544;2023-03-01T13:19:12;69.12;37.61;90.07;;
37161;Laerm;67371;52.624;13.544;2023-03-01T13:21:39;67.21;41.00;78.52;;
37161;Laerm;67371;52.624;13.544;2023-03-01T13:24:04;68.87;47.22;80.20;;
37161;Laerm;67371;52.624;13.544;2023-03-01T13:26:29;70.19;45.83;83.21;;
37161;Laerm;67371;52.624;13.544;2023-03-01T13:28:55;67.84;37.84;75.15;;
37161;Laerm;67371;52.624;13.544;2023-03-01T13:36:46;68.06;45.70;78.15;;
37161;Laerm;67371;52.624;13.544;2023-03-01T13:39:39;68.62;45.48;79.31;;
37161;Laerm;67371;52.624;13.544;2023-03-01T13:41:58;68.76;47.74;80.56;;
37161;Laerm;67371;52.624;13.544;2023-03-01T13:44:34;65.94;41.47;80.12;;
37161;Laerm;67371;52.624;13.544;2023-03-01T13:55:00;66.24;44.02;75.01;;
37161;Laerm;67371;52.624;13.544;2023-03-01T13:57:29;68.47;45.42;78.20;;
37161;Laerm;67371;52.624;13.544;2023-03-01T13:59:56;66.94;45.55;77.00;;
37161;Laerm;67371;52.624;13.544;2023-03-01T14:02:21;67.78;37.71;76.10;;
37161;Laerm;67371;52.624;13.544;2023-03-01T14:05:00;67.30;42.39;78.62;;
37161;Laerm;67371;52.624;13.544;2023-03-01T14:07:26;69.09;39.70;80.24;;
37161;Laerm;67371;52.624;13.544;2023-03-01T14:09:55;67.03;37.02;74.94;;
37161;Laerm;67371;52.624;13.544;2023-03-01T14:12:24;69.40;46.68;76.54;;
37161;Laerm;67371;52.624;13.544;2023-03-01T14:19:54;68.29;41.43;76.21;;
37161;Laerm;67371;52.624;13.544;2023-03-01T14:22:27;67.92;44.89;74.87;;
37161;Laerm;67371;52.624;13.544;2023-03-01T14:27:25;67.16;38.92;74.98;;
37161;Laerm;67371;52.624;13.544;2023-03-01T14:30:01;69.54;51.14;79.74;;
37161;Laerm;67371;52.624;13.544;2023-03-01T14:32:28;68.32;45.55;77.67;;
37161;Laerm;67371;52.624;13.544;2023-03-01T14:34:54;69.12;46.82;79.38;;
37161;Laerm;67371;52.624;13.544;2023-03-01T14:39:45;68.81;51.10;75.25;;
37161;Laerm;67371;52.624;13.544;2023-03-01T14:42:11;69.18;42.60;80.19;;
37161;Laerm;67371;52.624;13.544;2023-03-01T14:44:37;67.98;43.02;75.22;;
37161;Laerm;67371;52.624;13.544;2023-03-01T14:47:02;67.56;41.84;76.44;;
37161;Laerm;67371;52.624;13.544;2023-03-01T14:49:29;69.48;45.23;80.50;;
37161;Laerm;67371;52.624;13.544;2023-03-01T14:51:59;68.89;43.55;82.19;;
37161;Laerm;67371;52.624;13.544;2023-03-01T14:54:41;68.94;51.67;78.41;;
37161;Laerm;67371;52.624;13.544;2023-03-01T14:57:24;66.52;42.51;79.40;;
37161;Laerm;67371;52.624;13.544;2023-03-01T14:59:50;69.46;44.49;76.57;;
37161;Laerm;67371;52.624;13.544;2023-03-01T15:02:18;68.52;42.13;76.86;;
37161;Laerm;67371;52.624;13.544;2023-03-01T15:04:57;67.29;51.57;75.00;;
37161;Laerm;67371;52.624;13.544;2023-03-01T15:07:26;68.98;49.62;77.64;;
37161;Laerm;67371;52.624;13.544;2023-03-01T15:09:53;69.74;48.98;77.76;;
37161;Laerm;67371;52.624;13.544;2023-03-01T15:12:51;67.55;45.38;76.89;;
37161;Laerm;67371;52.624;13.544;2023-03-01T15:18:14;67.51;43.75;76.72;;
37161;Laerm;67371;52.624;13.544;2023-03-01T15:20:40;69.00;43.76;78.63;;
37161;Laerm;67371;52.624;13.544;2023-03-01T15:23:12;67.59;39.74;76.23;;
37161;Laerm;67371;52.624;13.544;2023-03-01T15:25:44;69.80;47.43;78.38;;
37161;Laerm;67371;52.624;13.544;2023-03-01T15:28:17;67.89;43.98;78.24;;